sensor_id;sensor_type;location;lat;lon;timestamp;P1;P2;P0
47741;PMS5003;33504;52.066;6.096;2024-02-15T00:00:40;16;16;
47741;PMS5003;33504;52.066;6.096;2024-02-15T00:03:07;15;15;
47741;PMS5003;33504;52.066;6.096;2024-02-15T00:05:34;19;17;
47741;PMS5003;33504;52.066;6.096;2024-02-15T00:08:01;17;16;
47741;PMS5003;33504;52.066;6.096;2024-02-15T00:10:28;19;18;
47741;PMS5003;33504;52.066;6.096;2024-02-15T00:12:55;16;15;
47741;PMS5003;33504;52.066;6.096;2024-02-15T00:15:23;19;19;
47741;PMS5003;33504;52.066;6.096;2024-02-15T00:17:50;18;18;
47741;PMS5003;33504;52.066;6.096;2024-02-15T00:20:17;16;16;
47741;PMS5003;33504;52.066;6.096;2024-02-15T00:22:44;24;24;
47741;PMS5003;33504;52.066;6.096;2024-02-15T00:25:12;17;17;
47741;PMS5003;33504;52.066;6.096;2024-02-15T00:27:38;17;17;
47741;PMS5003;33504;52.066;6.096;2024-02-15T00:30:06;18;18;
47741;PMS5003;33504;52.066;6.096;2024-02-15T00:32:34;22;21;
47741;PMS5003;33504;52.066;6.096;2024-02-15T00:35:01;20;19;
47741;PMS5003;33504;52.066;6.096;2024-02-15T00:37:29;19;19;
47741;PMS5003;33504;52.066;6.096;2024-02-15T00:39:56;21;20;
47741;PMS5003;33504;52.066;6.096;2024-02-15T00:42:23;23;20;
47741;PMS5003;33504;52.066;6.096;2024-02-15T00:44:50;24;23;
47741;PMS5003;33504;52.066;6.096;2024-02-15T00:47:17;25;23;
47741;PMS5003;33504;52.066;6.096;2024-02-15T00:49:44;19;19;
47741;PMS5003;33504;52.066;6.096;2024-02-15T00:52:11;27;27;
47741;PMS5003;33504;52.066;6.096;2024-02-15T00:54:38;29;27;
47741;PMS5003;33504;52.066;6.096;2024-02-15T00:57:05;28;27;
47741;PMS5003;33504;52.066;6.096;2024-02-15T00:59:33;26;25;
47741;PMS5003;33504;52.066;6.096;2024-02-15T01:02:00;28;26;
47741;PMS5003;33504;52.066;6.096;2024-02-15T01:04:27;25;25;
47741;PMS5003;33504;52.066;6.096;2024-02-15T01:06:54;35;32;
47741;PMS5003;33504;52.066;6.096;2024-02-15T01:09:22;30;29;
47741;PMS5003;33504;52.066;6.096;2024-02-15T01:11:49;37;35;
47741;PMS5003;33504;52.066;6.096;2024-02-15T01:14:17;34;33;
47741;PMS5003;33504;52.066;6.096;2024-02-15T01:16:44;36;32;
47741;PMS5003;33504;52.066;6.096;2024-02-15T01:19:11;36;36;
47741;PMS5003;33504;52.066;6.096;2024-02-15T01:21:39;44;38;
47741;PMS5003;33504;52.066;6.096;2024-02-15T01:24:06;40;38;
47741;PMS5003;33504;52.066;6.096;2024-02-15T01:26:33;45;43;
47741;PMS5003;33504;52.066;6.096;2024-02-15T01:29:00;43;39;
47741;PMS5003;33504;52.066;6.096;2024-02-15T01:31:27;41;40;
47741;PMS5003;33504;52.066;6.096;2024-02-15T01:33:54;39;37;
47741;PMS5003;33504;52.066;6.096;2024-02-15T01:36:21;41;38;
47741;PMS5003;33504;52.066;6.096;2024-02-15T01:38:49;35;35;
47741;PMS5003;33504;52.066;6.096;2024-02-15T01:41:16;38;37;
47741;PMS5003;33504;52.066;6.096;2024-02-15T01:43:43;36;35;
47741;PMS5003;33504;52.066;6.096;2024-02-15T01:46:11;38;36;
47741;PMS5003;33504;52.066;6.096;2024-02-15T01:48:40;32;32;
47741;PMS5003;33504;52.066;6.096;2024-02-15T01:51:08;32;31;
47741;PMS5003;33504;52.066;6.096;2024-02-15T01:53:37;37;34;
47741;PMS5003;33504;52.066;6.096;2024-02-15T01:56:05;38;36;
47741;PMS5003;33504;52.066;6.096;2024-02-15T01:58:33;37;36;
47741;PMS5003;33504;52.066;6.096;2024-02-15T02:01:01;31;28;
47741;PMS5003;33504;52.066;6.096;2024-02-15T02:03:29;30;29;
47741;PMS5003;33504;52.066;6.096;2024-02-15T02:05:56;34;31;
47741;PMS5003;33504;52.066;6.096;2024-02-15T02:08:24;32;31;
47741;PMS5003;33504;52.066;6.096;2024-02-15T02:10:51;31;29;
47741;PMS5003;33504;52.066;6.096;2024-02-15T02:13:19;40;37;
47741;PMS5003;33504;52.066;6.096;2024-02-15T02:15:46;31;30;
47741;PMS5003;33504;52.066;6.096;2024-02-15T02:18:13;29;28;
47741;PMS5003;33504;52.066;6.096;2024-02-15T02:20:41;32;31;
47741;PMS5003;33504;52.066;6.096;2024-02-15T02:23:09;30;26;
47741;PMS5003;33504;52.066;6.096;2024-02-15T02:25:40;31;30;
47741;PMS5003;33504;52.066;6.096;2024-02-15T02:28:08;30;27;
47741;PMS5003;33504;52.066;6.096;2024-02-15T02:30:36;33;29;
47741;PMS5003;33504;52.066;6.096;2024-02-15T02:33:03;36;32;
47741;PMS5003;33504;52.066;6.096;2024-02-15T02:35:32;35;32;
47741;PMS5003;33504;52.066;6.096;2024-02-15T02:37:59;29;28;
47741;PMS5003;33504;52.066;6.096;2024-02-15T02:40:26;29;28;
47741;PMS5003;33504;52.066;6.096;2024-02-15T02:42:53;28;28;
47741;PMS5003;33504;52.066;6.096;2024-02-15T02:45:22;30;29;
47741;PMS5003;33504;52.066;6.096;2024-02-15T02:47:49;31;30;
47741;PMS5003;33504;52.066;6.096;2024-02-15T02:50:17;30;28;
47741;PMS5003;33504;52.066;6.096;2024-02-15T02:52:44;33;31;
47741;PMS5003;33504;52.066;6.096;2024-02-15T02:55:11;27;27;
47741;PMS5003;33504;52.066;6.096;2024-02-15T02:57:39;32;31;
47741;PMS5003;33504;52.066;6.096;2024-02-15T03:00:07;27;26;
47741;PMS5003;33504;52.066;6.096;2024-02-15T03:02:35;28;26;
47741;PMS5003;33504;52.066;6.096;2024-02-15T03:05:03;30;30;
47741;PMS5003;33504;52.066;6.096;2024-02-15T03:07:32;33;29;
47741;PMS5003;33504;52.066;6.096;2024-02-15T03:09:59;28;28;
47741;PMS5003;33504;52.066;6.096;2024-02-15T03:12:27;32;31;
47741;PMS5003;33504;52.066;6.096;2024-02-15T03:14:54;33;31;
47741;PMS5003;33504;52.066;6.096;2024-02-15T03:17:22;26;26;
47741;PMS5003;33504;52.066;6.096;2024-02-15T03:19:49;34;31;
47741;PMS5003;33504;52.066;6.096;2024-02-15T03:22:17;31;29;
47741;PMS5003;33504;52.066;6.096;2024-02-15T03:24:44;31;28;
47741;PMS5003;33504;52.066;6.096;2024-02-15T03:27:11;27;26;
47741;PMS5003;33504;52.066;6.096;2024-02-15T03:29:38;30;29;
47741;PMS5003;33504;52.066;6.096;2024-02-15T03:32:05;38;34;
47741;PMS5003;33504;52.066;6.096;2024-02-15T03:34:33;31;31;
47741;PMS5003;33504;52.066;6.096;2024-02-15T03:37:00;32;30;
47741;PMS5003;33504;52.066;6.096;2024-02-15T03:39:27;25;25;
47741;PMS5003;33504;52.066;6.096;2024-02-15T03:41:54;28;25;
47741;PMS5003;33504;52.066;6.096;2024-02-15T03:44:22;24;24;
47741;PMS5003;33504;52.066;6.096;2024-02-15T03:46:49;28;26;
47741;PMS5003;33504;52.066;6.096;2024-02-15T03:49:17;22;21;
47741;PMS5003;33504;52.066;6.096;2024-02-15T03:51:44;27;26;
47741;PMS5003;33504;52.066;6.096;2024-02-15T03:54:12;25;24;
47741;PMS5003;33504;52.066;6.096;2024-02-15T03:56:46;26;24;
47741;PMS5003;33504;52.066;6.096;2024-02-15T03:59:13;27;27;
47741;PMS5003;33504;52.066;6.096;2024-02-15T04:01:40;25;23;
47741;PMS5003;33504;52.066;6.096;2024-02-15T04:04:07;28;26;
47741;PMS5003;33504;52.066;6.096;2024-02-15T04:06:35;22;21;
47741;PMS5003;33504;52.066;6.096;2024-02-15T04:09:02;29;27;
47741;PMS5003;33504;52.066;6.096;2024-02-15T04:11:28;24;24;
47741;PMS5003;33504;52.066;6.096;2024-02-15T04:13:55;27;26;
47741;PMS5003;33504;52.066;6.096;2024-02-15T04:16:22;30;28;
47741;PMS5003;33504;52.066;6.096;2024-02-15T04:18:49;26;24;
47741;PMS5003;33504;52.066;6.096;2024-02-15T04:21:16;32;29;
47741;PMS5003;33504;52.066;6.096;2024-02-15T04:23:43;27;26;
47741;PMS5003;33504;52.066;6.096;2024-02-15T04:26:10;24;21;
47741;PMS5003;33504;52.066;6.096;2024-02-15T04:28:37;26;23;
47741;PMS5003;33504;52.066;6.096;2024-02-15T04:31:04;25;23;
47741;PMS5003;33504;52.066;6.096;2024-02-15T04:33:32;26;23;
47741;PMS5003;33504;52.066;6.096;2024-02-15T04:35:59;29;27;
47741;PMS5003;33504;52.066;6.096;2024-02-15T04:38:27;24;20;
47741;PMS5003;33504;52.066;6.096;2024-02-15T04:40:54;22;21;
47741;PMS5003;33504;52.066;6.096;2024-02-15T04:43:21;23;20;
47741;PMS5003;33504;52.066;6.096;2024-02-15T04:45:48;23;21;
47741;PMS5003;33504;52.066;6.096;2024-02-15T04:48:16;23;22;
47741;PMS5003;33504;52.066;6.096;2024-02-15T04:50:43;28;28;
47741;PMS5003;33504;52.066;6.096;2024-02-15T04:53:10;25;23;
47741;PMS5003;33504;52.066;6.096;2024-02-15T04:55:38;19;18;
47741;PMS5003;33504;52.066;6.096;2024-02-15T04:58:05;26;22;
47741;PMS5003;33504;52.066;6.096;2024-02-15T05:00:32;27;24;
47741;PMS5003;33504;52.066;6.096;2024-02-15T05:02:59;17;17;
47741;PMS5003;33504;52.066;6.096;2024-02-15T05:05:26;19;17;
47741;PMS5003;33504;52.066;6.096;2024-02-15T05:07:53;19;18;
47741;PMS5003;33504;52.066;6.096;2024-02-15T05:10:20;21;20;
47741;PMS5003;33504;52.066;6.096;2024-02-15T05:12:47;20;18;
47741;PMS5003;33504;52.066;6.096;2024-02-15T05:15:15;19;18;
47741;PMS5003;33504;52.066;6.096;2024-02-15T05:17:42;18;17;
47741;PMS5003;33504;52.066;6.096;2024-02-15T05:20:10;16;14;
47741;PMS5003;33504;52.066;6.096;2024-02-15T05:22:37;16;15;
47741;PMS5003;33504;52.066;6.096;2024-02-15T05:25:04;14;14;
47741;PMS5003;33504;52.066;6.096;2024-02-15T05:27:32;22;19;
47741;PMS5003;33504;52.066;6.096;2024-02-15T05:29:59;14;14;
47741;PMS5003;33504;52.066;6.096;2024-02-15T05:32:26;19;18;
47741;PMS5003;33504;52.066;6.096;2024-02-15T05:34:54;13;12;
47741;PMS5003;33504;52.066;6.096;2024-02-15T05:37:21;16;14;
47741;PMS5003;33504;52.066;6.096;2024-02-15T05:39:48;14;14;
47741;PMS5003;33504;52.066;6.096;2024-02-15T05:42:15;15;13;
47741;PMS5003;33504;52.066;6.096;2024-02-15T05:44:42;15;14;
47741;PMS5003;33504;52.066;6.096;2024-02-15T05:47:09;15;15;
47741;PMS5003;33504;52.066;6.096;2024-02-15T05:49:36;19;18;
47741;PMS5003;33504;52.066;6.096;2024-02-15T05:52:03;17;16;
47741;PMS5003;33504;52.066;6.096;2024-02-15T05:54:30;15;15;
47741;PMS5003;33504;52.066;6.096;2024-02-15T05:56:57;24;22;
47741;PMS5003;33504;52.066;6.096;2024-02-15T05:59:24;20;16;
47741;PMS5003;33504;52.066;6.096;2024-02-15T06:01:51;16;15;
47741;PMS5003;33504;52.066;6.096;2024-02-15T06:04:18;15;14;
47741;PMS5003;33504;52.066;6.096;2024-02-15T06:06:45;15;14;
47741;PMS5003;33504;52.066;6.096;2024-02-15T06:09:12;16;14;
47741;PMS5003;33504;52.066;6.096;2024-02-15T06:11:39;17;16;
47741;PMS5003;33504;52.066;6.096;2024-02-15T06:14:06;14;14;
47741;PMS5003;33504;52.066;6.096;2024-02-15T06:16:33;16;14;
47741;PMS5003;33504;52.066;6.096;2024-02-15T06:19:00;20;17;
47741;PMS5003;33504;52.066;6.096;2024-02-15T06:21:27;16;16;
47741;PMS5003;33504;52.066;6.096;2024-02-15T06:23:55;14;13;
47741;PMS5003;33504;52.066;6.096;2024-02-15T06:26:22;22;20;
47741;PMS5003;33504;52.066;6.096;2024-02-15T06:28:49;14;13;
47741;PMS5003;33504;52.066;6.096;2024-02-15T06:31:16;13;13;
47741;PMS5003;33504;52.066;6.096;2024-02-15T06:33:43;17;15;
47741;PMS5003;33504;52.066;6.096;2024-02-15T06:36:10;13;13;
47741;PMS5003;33504;52.066;6.096;2024-02-15T06:38:38;18;16;
47741;PMS5003;33504;52.066;6.096;2024-02-15T06:41:04;13;13;
47741;PMS5003;33504;52.066;6.096;2024-02-15T06:43:32;13;12;
47741;PMS5003;33504;52.066;6.096;2024-02-15T06:45:59;15;14;
47741;PMS5003;33504;52.066;6.096;2024-02-15T06:48:27;15;14;
47741;PMS5003;33504;52.066;6.096;2024-02-15T06:50:53;15;15;
47741;PMS5003;33504;52.066;6.096;2024-02-15T06:53:21;15;15;
47741;PMS5003;33504;52.066;6.096;2024-02-15T06:55:49;12;11;
47741;PMS5003;33504;52.066;6.096;2024-02-15T06:58:16;17;16;
47741;PMS5003;33504;52.066;6.096;2024-02-15T07:00:43;14;14;
47741;PMS5003;33504;52.066;6.096;2024-02-15T07:03:10;13;13;
47741;PMS5003;33504;52.066;6.096;2024-02-15T07:05:37;16;14;
47741;PMS5003;33504;52.066;6.096;2024-02-15T07:08:05;15;14;
47741;PMS5003;33504;52.066;6.096;2024-02-15T07:10:33;15;14;
47741;PMS5003;33504;52.066;6.096;2024-02-15T07:13:00;13;13;
47741;PMS5003;33504;52.066;6.096;2024-02-15T07:15:27;14;13;
47741;PMS5003;33504;52.066;6.096;2024-02-15T07:17:55;15;14;
47741;PMS5003;33504;52.066;6.096;2024-02-15T07:20:23;15;14;
47741;PMS5003;33504;52.066;6.096;2024-02-15T07:22:52;14;14;
47741;PMS5003;33504;52.066;6.096;2024-02-15T07:25:24;15;14;
47741;PMS5003;33504;52.066;6.096;2024-02-15T07:27:51;15;15;
47741;PMS5003;33504;52.066;6.096;2024-02-15T07:30:19;14;14;
47741;PMS5003;33504;52.066;6.096;2024-02-15T07:32:46;16;16;
47741;PMS5003;33504;52.066;6.096;2024-02-15T07:35:14;16;15;
47741;PMS5003;33504;52.066;6.096;2024-02-15T07:37:43;15;14;
47741;PMS5003;33504;52.066;6.096;2024-02-15T07:40:18;16;14;
47741;PMS5003;33504;52.066;6.096;2024-02-15T07:42:45;16;15;
47741;PMS5003;33504;52.066;6.096;2024-02-15T07:45:13;13;13;
47741;PMS5003;33504;52.066;6.096;2024-02-15T07:47:40;13;11;
47741;PMS5003;33504;52.066;6.096;2024-02-15T07:50:08;16;14;
47741;PMS5003;33504;52.066;6.096;2024-02-15T07:52:35;15;14;
47741;PMS5003;33504;52.066;6.096;2024-02-15T07:55:03;13;13;
47741;PMS5003;33504;52.066;6.096;2024-02-15T07:57:31;19;19;
47741;PMS5003;33504;52.066;6.096;2024-02-15T07:59:58;16;16;
47741;PMS5003;33504;52.066;6.096;2024-02-15T08:02:25;14;14;
47741;PMS5003;33504;52.066;6.096;2024-02-15T08:04:53;15;15;
47741;PMS5003;33504;52.066;6.096;2024-02-15T08:07:20;15;13;
47741;PMS5003;33504;52.066;6.096;2024-02-15T08:09:48;14;13;
47741;PMS5003;33504;52.066;6.096;2024-02-15T08:12:14;13;12;
47741;PMS5003;33504;52.066;6.096;2024-02-15T08:14:41;14;13;
47741;PMS5003;33504;52.066;6.096;2024-02-15T08:17:08;12;12;
47741;PMS5003;33504;52.066;6.096;2024-02-15T08:19:35;14;14;
47741;PMS5003;33504;52.066;6.096;2024-02-15T08:22:03;16;15;
47741;PMS5003;33504;52.066;6.096;2024-02-15T08:24:31;13;13;
47741;PMS5003;33504;52.066;6.096;2024-02-15T08:26:58;13;12;
47741;PMS5003;33504;52.066;6.096;2024-02-15T08:29:25;12;12;
47741;PMS5003;33504;52.066;6.096;2024-02-15T08:31:52;11;11;
47741;PMS5003;33504;52.066;6.096;2024-02-15T08:34:19;12;12;
47741;PMS5003;33504;52.066;6.096;2024-02-15T08:36:46;15;12;
47741;PMS5003;33504;52.066;6.096;2024-02-15T08:39:13;9;8;
47741;PMS5003;33504;52.066;6.096;2024-02-15T08:41:40;12;12;
47741;PMS5003;33504;52.066;6.096;2024-02-15T08:44:07;9;9;
47741;PMS5003;33504;52.066;6.096;2024-02-15T08:46:33;9;9;
47741;PMS5003;33504;52.066;6.096;2024-02-15T08:49:01;10;9;
47741;PMS5003;33504;52.066;6.096;2024-02-15T08:51:28;8;8;
47741;PMS5003;33504;52.066;6.096;2024-02-15T08:53:56;8;8;
47741;PMS5003;33504;52.066;6.096;2024-02-15T08:56:22;11;11;
47741;PMS5003;33504;52.066;6.096;2024-02-15T08:58:50;8;8;
47741;PMS5003;33504;52.066;6.096;2024-02-15T09:01:16;8;8;
47741;PMS5003;33504;52.066;6.096;2024-02-15T09:03:43;8;8;
47741;PMS5003;33504;52.066;6.096;2024-02-15T09:06:10;7;7;
47741;PMS5003;33504;52.066;6.096;2024-02-15T09:08:37;11;9;
47741;PMS5003;33504;52.066;6.096;2024-02-15T09:11:04;10;9;
47741;PMS5003;33504;52.066;6.096;2024-02-15T09:13:31;10;9;
47741;PMS5003;33504;52.066;6.096;2024-02-15T09:15:58;10;9;
47741;PMS5003;33504;52.066;6.096;2024-02-15T09:18:25;11;11;
47741;PMS5003;33504;52.066;6.096;2024-02-15T09:20:52;9;9;
47741;PMS5003;33504;52.066;6.096;2024-02-15T09:23:20;8;7;
47741;PMS5003;33504;52.066;6.096;2024-02-15T09:25:48;8;8;
47741;PMS5003;33504;52.066;6.096;2024-02-15T09:28:15;12;11;
47741;PMS5003;33504;52.066;6.096;2024-02-15T09:30:42;11;10;
47741;PMS5003;33504;52.066;6.096;2024-02-15T09:33:09;9;8;
47741;PMS5003;33504;52.066;6.096;2024-02-15T09:35:36;9;9;
47741;PMS5003;33504;52.066;6.096;2024-02-15T09:38:03;9;8;
47741;PMS5003;33504;52.066;6.096;2024-02-15T09:40:30;9;9;
47741;PMS5003;33504;52.066;6.096;2024-02-15T09:42:57;9;9;
47741;PMS5003;33504;52.066;6.096;2024-02-15T09:45:24;10;9;
47741;PMS5003;33504;52.066;6.096;2024-02-15T09:47:52;10;10;
47741;PMS5003;33504;52.066;6.096;2024-02-15T09:50:19;9;9;
47741;PMS5003;33504;52.066;6.096;2024-02-15T09:52:49;8;8;
47741;PMS5003;33504;52.066;6.096;2024-02-15T09:55:17;10;9;
47741;PMS5003;33504;52.066;6.096;2024-02-15T09:57:46;9;9;
47741;PMS5003;33504;52.066;6.096;2024-02-15T10:00:14;14;14;
47741;PMS5003;33504;52.066;6.096;2024-02-15T10:02:43;9;9;
47741;PMS5003;33504;52.066;6.096;2024-02-15T10:05:11;10;9;
47741;PMS5003;33504;52.066;6.096;2024-02-15T10:07:39;9;9;
47741;PMS5003;33504;52.066;6.096;2024-02-15T10:10:14;10;9;
47741;PMS5003;33504;52.066;6.096;2024-02-15T10:12:42;11;11;
47741;PMS5003;33504;52.066;6.096;2024-02-15T10:15:09;10;9;
47741;PMS5003;33504;52.066;6.096;2024-02-15T10:17:37;11;10;
47741;PMS5003;33504;52.066;6.096;2024-02-15T10:20:04;11;11;
47741;PMS5003;33504;52.066;6.096;2024-02-15T10:22:32;10;9;
47741;PMS5003;33504;52.066;6.096;2024-02-15T10:25:10;13;12;
47741;PMS5003;33504;52.066;6.096;2024-02-15T10:27:38;9;9;
47741;PMS5003;33504;52.066;6.096;2024-02-15T10:30:15;13;13;
47741;PMS5003;33504;52.066;6.096;2024-02-15T10:32:44;10;9;
47741;PMS5003;33504;52.066;6.096;2024-02-15T10:35:18;10;9;
47741;PMS5003;33504;52.066;6.096;2024-02-15T10:37:47;14;14;
47741;PMS5003;33504;52.066;6.096;2024-02-15T10:40:17;13;12;
47741;PMS5003;33504;52.066;6.096;2024-02-15T10:42:45;11;11;
47741;PMS5003;33504;52.066;6.096;2024-02-15T10:45:14;15;14;
47741;PMS5003;33504;52.066;6.096;2024-02-15T10:47:42;13;13;
47741;PMS5003;33504;52.066;6.096;2024-02-15T10:50:11;15;13;
47741;PMS5003;33504;52.066;6.096;2024-02-15T10:52:41;13;12;
47741;PMS5003;33504;52.066;6.096;2024-02-15T10:55:14;9;9;
47741;PMS5003;33504;52.066;6.096;2024-02-15T10:57:48;11;11;
47741;PMS5003;33504;52.066;6.096;2024-02-15T11:00:17;11;10;
47741;PMS5003;33504;52.066;6.096;2024-02-15T11:02:50;12;11;
47741;PMS5003;33504;52.066;6.096;2024-02-15T11:05:26;13;12;
47741;PMS5003;33504;52.066;6.096;2024-02-15T11:07:56;12;12;
47741;PMS5003;33504;52.066;6.096;2024-02-15T11:10:24;15;15;
47741;PMS5003;33504;52.066;6.096;2024-02-15T11:12:52;13;12;
47741;PMS5003;33504;52.066;6.096;2024-02-15T11:15:51;12;12;
47741;PMS5003;33504;52.066;6.096;2024-02-15T11:18:50;13;12;
47741;PMS5003;33504;52.066;6.096;2024-02-15T11:21:18;13;12;
47741;PMS5003;33504;52.066;6.096;2024-02-15T11:24:26;12;11;
47741;PMS5003;33504;52.066;6.096;2024-02-15T11:26:57;13;12;
47741;PMS5003;33504;52.066;6.096;2024-02-15T11:29:58;14;13;
47741;PMS5003;33504;52.066;6.096;2024-02-15T11:32:34;13;12;
47741;PMS5003;33504;52.066;6.096;2024-02-15T11:35:02;12;11;
47741;PMS5003;33504;52.066;6.096;2024-02-15T11:38:02;11;11;
47741;PMS5003;33504;52.066;6.096;2024-02-15T11:41:00;13;12;
47741;PMS5003;33504;52.066;6.096;2024-02-15T11:44:00;12;12;
47741;PMS5003;33504;52.066;6.096;2024-02-15T11:46:28;11;10;
47741;PMS5003;33504;52.066;6.096;2024-02-15T11:48:55;23;21;
47741;PMS5003;33504;52.066;6.096;2024-02-15T11:51:26;17;16;
47741;PMS5003;33504;52.066;6.096;2024-02-15T11:54:02;13;12;
47741;PMS5003;33504;52.066;6.096;2024-02-15T11:56:30;12;12;
47741;PMS5003;33504;52.066;6.096;2024-02-15T11:59:01;13;12;
47741;PMS5003;33504;52.066;6.096;2024-02-15T12:01:30;14;13;
47741;PMS5003;33504;52.066;6.096;2024-02-15T12:03:58;14;13;
47741;PMS5003;33504;52.066;6.096;2024-02-15T12:06:25;15;12;
47741;PMS5003;33504;52.066;6.096;2024-02-15T12:08:54;12;12;
47741;PMS5003;33504;52.066;6.096;2024-02-15T12:11:21;13;12;
47741;PMS5003;33504;52.066;6.096;2024-02-15T12:13:49;12;11;
47741;PMS5003;33504;52.066;6.096;2024-02-15T12:16:16;11;11;
47741;PMS5003;33504;52.066;6.096;2024-02-15T12:18:44;13;12;
47741;PMS5003;33504;52.066;6.096;2024-02-15T12:21:12;12;12;
47741;PMS5003;33504;52.066;6.096;2024-02-15T12:23:43;13;13;
47741;PMS5003;33504;52.066;6.096;2024-02-15T12:26:10;12;12;
47741;PMS5003;33504;52.066;6.096;2024-02-15T12:28:38;10;10;
47741;PMS5003;33504;52.066;6.096;2024-02-15T12:31:05;12;12;
47741;PMS5003;33504;52.066;6.096;2024-02-15T12:33:33;13;13;
47741;PMS5003;33504;52.066;6.096;2024-02-15T12:36:04;13;12;
47741;PMS5003;33504;52.066;6.096;2024-02-15T12:38:31;12;12;
47741;PMS5003;33504;52.066;6.096;2024-02-15T12:40:58;13;12;
47741;PMS5003;33504;52.066;6.096;2024-02-15T12:43:26;13;11;
47741;PMS5003;33504;52.066;6.096;2024-02-15T12:45:54;15;14;
47741;PMS5003;33504;52.066;6.096;2024-02-15T12:48:20;40;39;
47741;PMS5003;33504;52.066;6.096;2024-02-15T12:50:47;35;34;
47741;PMS5003;33504;52.066;6.096;2024-02-15T12:53:20;31;31;
47741;PMS5003;33504;52.066;6.096;2024-02-15T12:55:52;26;26;
47741;PMS5003;33504;52.066;6.096;2024-02-15T12:58:20;16;15;
47741;PMS5003;33504;52.066;6.096;2024-02-15T13:00:47;47;45;
47741;PMS5003;33504;52.066;6.096;2024-02-15T13:03:14;17;16;
47741;PMS5003;33504;52.066;6.096;2024-02-15T13:05:42;14;13;
47741;PMS5003;33504;52.066;6.096;2024-02-15T13:08:08;18;16;
47741;PMS5003;33504;52.066;6.096;2024-02-15T13:10:36;28;28;
47741;PMS5003;33504;52.066;6.096;2024-02-15T13:13:03;23;22;
47741;PMS5003;33504;52.066;6.096;2024-02-15T13:15:31;17;17;
47741;PMS5003;33504;52.066;6.096;2024-02-15T13:17:59;33;32;
47741;PMS5003;33504;52.066;6.096;2024-02-15T13:20:27;15;14;
47741;PMS5003;33504;52.066;6.096;2024-02-15T13:22:54;18;17;
47741;PMS5003;33504;52.066;6.096;2024-02-15T13:25:21;11;10;
47741;PMS5003;33504;52.066;6.096;2024-02-15T13:27:48;10;10;
47741;PMS5003;33504;52.066;6.096;2024-02-15T13:30:17;7;7;
47741;PMS5003;33504;52.066;6.096;2024-02-15T13:32:44;10;10;
47741;PMS5003;33504;52.066;6.096;2024-02-15T13:35:11;10;10;
47741;PMS5003;33504;52.066;6.096;2024-02-15T13:37:40;20;18;
47741;PMS5003;33504;52.066;6.096;2024-02-15T13:40:08;9;9;
47741;PMS5003;33504;52.066;6.096;2024-02-15T13:42:36;10;9;
47741;PMS5003;33504;52.066;6.096;2024-02-15T13:45:03;10;9;
47741;PMS5003;33504;52.066;6.096;2024-02-15T13:47:31;7;7;
47741;PMS5003;33504;52.066;6.096;2024-02-15T13:49:58;9;9;
47741;PMS5003;33504;52.066;6.096;2024-02-15T13:52:25;7;6;
47741;PMS5003;33504;52.066;6.096;2024-02-15T13:54:52;8;7;
47741;PMS5003;33504;52.066;6.096;2024-02-15T13:57:19;11;11;
47741;PMS5003;33504;52.066;6.096;2024-02-15T13:59:46;10;9;
47741;PMS5003;33504;52.066;6.096;2024-02-15T14:02:13;15;13;
47741;PMS5003;33504;52.066;6.096;2024-02-15T14:04:40;10;9;
47741;PMS5003;33504;52.066;6.096;2024-02-15T14:07:07;11;10;
47741;PMS5003;33504;52.066;6.096;2024-02-15T14:09:34;10;10;
47741;PMS5003;33504;52.066;6.096;2024-02-15T14:12:02;10;9;
47741;PMS5003;33504;52.066;6.096;2024-02-15T14:14:29;8;8;
47741;PMS5003;33504;52.066;6.096;2024-02-15T14:16:56;8;7;
47741;PMS5003;33504;52.066;6.096;2024-02-15T14:19:23;9;7;
47741;PMS5003;33504;52.066;6.096;2024-02-15T14:21:51;8;8;
47741;PMS5003;33504;52.066;6.096;2024-02-15T14:24:18;8;8;
47741;PMS5003;33504;52.066;6.096;2024-02-15T14:26:46;10;10;
47741;PMS5003;33504;52.066;6.096;2024-02-15T14:29:13;7;7;
47741;PMS5003;33504;52.066;6.096;2024-02-15T14:31:41;10;7;
47741;PMS5003;33504;52.066;6.096;2024-02-15T14:34:08;7;7;
47741;PMS5003;33504;52.066;6.096;2024-02-15T14:36:36;8;8;
47741;PMS5003;33504;52.066;6.096;2024-02-15T14:39:03;13;13;
47741;PMS5003;33504;52.066;6.096;2024-02-15T14:41:30;6;6;
47741;PMS5003;33504;52.066;6.096;2024-02-15T14:43:57;7;6;
47741;PMS5003;33504;52.066;6.096;2024-02-15T14:46:25;8;7;
47741;PMS5003;33504;52.066;6.096;2024-02-15T14:48:52;7;6;
47741;PMS5003;33504;52.066;6.096;2024-02-15T14:51:20;6;6;
47741;PMS5003;33504;52.066;6.096;2024-02-15T14:53:47;9;7;
47741;PMS5003;33504;52.066;6.096;2024-02-15T14:56:15;5;5;
47741;PMS5003;33504;52.066;6.096;2024-02-15T14:58:42;9;8;
47741;PMS5003;33504;52.066;6.096;2024-02-15T15:01:09;7;7;
47741;PMS5003;33504;52.066;6.096;2024-02-15T15:03:36;12;10;
47741;PMS5003;33504;52.066;6.096;2024-02-15T15:06:04;10;9;
47741;PMS5003;33504;52.066;6.096;2024-02-15T15:08:33;9;8;
47741;PMS5003;33504;52.066;6.096;2024-02-15T15:11:00;7;6;
47741;PMS5003;33504;52.066;6.096;2024-02-15T15:13:28;7;7;
47741;PMS5003;33504;52.066;6.096;2024-02-15T15:15:55;8;7;
47741;PMS5003;33504;52.066;6.096;2024-02-15T15:18:23;9;8;
47741;PMS5003;33504;52.066;6.096;2024-02-15T15:20:50;7;7;
47741;PMS5003;33504;52.066;6.096;2024-02-15T15:23:18;7;7;
47741;PMS5003;33504;52.066;6.096;2024-02-15T15:25:45;8;7;
47741;PMS5003;33504;52.066;6.096;2024-02-15T15:28:13;6;6;
47741;PMS5003;33504;52.066;6.096;2024-02-15T15:30:40;10;9;
47741;PMS5003;33504;52.066;6.096;2024-02-15T15:33:08;8;7;
47741;PMS5003;33504;52.066;6.096;2024-02-15T15:35:35;8;7;
47741;PMS5003;33504;52.066;6.096;2024-02-15T15:38:02;9;9;
47741;PMS5003;33504;52.066;6.096;2024-02-15T15:40:30;8;7;
47741;PMS5003;33504;52.066;6.096;2024-02-15T15:42:57;8;8;
47741;PMS5003;33504;52.066;6.096;2024-02-15T15:45:24;9;9;
47741;PMS5003;33504;52.066;6.096;2024-02-15T15:47:52;11;10;
47741;PMS5003;33504;52.066;6.096;2024-02-15T15:50:19;9;8;
47741;PMS5003;33504;52.066;6.096;2024-02-15T15:52:47;11;11;
47741;PMS5003;33504;52.066;6.096;2024-02-15T15:55:14;11;11;
47741;PMS5003;33504;52.066;6.096;2024-02-15T15:57:42;11;10;
47741;PMS5003;33504;52.066;6.096;2024-02-15T16:00:10;8;8;
47741;PMS5003;33504;52.066;6.096;2024-02-15T16:02:38;11;11;
47741;PMS5003;33504;52.066;6.096;2024-02-15T16:05:06;10;8;
47741;PMS5003;33504;52.066;6.096;2024-02-15T16:07:34;10;9;
47741;PMS5003;33504;52.066;6.096;2024-02-15T16:10:01;11;11;
47741;PMS5003;33504;52.066;6.096;2024-02-15T16:12:28;10;10;
47741;PMS5003;33504;52.066;6.096;2024-02-15T16:14:56;10;8;
47741;PMS5003;33504;52.066;6.096;2024-02-15T16:17:23;8;7;
47741;PMS5003;33504;52.066;6.096;2024-02-15T16:19:49;10;9;
47741;PMS5003;33504;52.066;6.096;2024-02-15T16:22:17;12;12;
47741;PMS5003;33504;52.066;6.096;2024-02-15T16:24:44;13;12;
47741;PMS5003;33504;52.066;6.096;2024-02-15T16:27:12;17;14;
47741;PMS5003;33504;52.066;6.096;2024-02-15T16:29:39;13;13;